Providence, Rhode Island
Traffic Map
Current Weather Conditions
Providence, Rhode Island
Overcast Haze
Overcast

Feels Like: 9°
Wind Chill: Ceiling: 8000
Heat Index: Visibility: 2.5mi
Dew Point: Wind: 0mph
Humidity: 93% Direction: ° ()
Pressure: 29.45in Gusts: 0mph
Raw Report DataKPVD 230751Z 00000KT 2 1/2SM BR OVC080 09/08 A2945 RMK AO2 SLP974 T00940083
Traffic Incident Summary
Active as of:
Severity:
Category:
InformationThere was an issue retrieving the traffic information for this location. Please try a different location or try again shortly.
Advertisements
At Last! Intellicast now available for iPhone and Android